All Spectrum Aviation - Van Nuys Airport - KVNY

HOME

Van Nuys Tower Recordings

Condor Squadron KVNY Webcam

Visit our Electronics Store

Condor Squadron Webcam - Van Nuys Airport - KVNY
Picture taken: Tue, 23 May 2017 09:37:31 -0700
YouTube Channel!    Latest Timelapse Movie    Full Size Image    Regular Size Image    

2017/05/23 15:51 KVNY 231551Z 00000KT 10SM FEW200 23/12 A2995 RMK AO2 SLP133 T02330122

HOME

Van Nuys Tower Recordings

Condor Squadron KVNY Webcam

Visit our Electronics Store